Time;durP1;ratioP1;P1;durP2;ratioP2;P2;SDS_P1;SDS_P2;PMS_P1;PMS_P2;Temp;Humidity;BMP_temperature;BMP_pressure;BME280_temperature;BME280_humidity;BME280_pressure;Samples;Min_cycle;Max_cycle;Signal;HPM_P1;HPM_P2
2023/12/27 00:02:01;;;;;;;4.70;1.80;;;6.10;99.90;;;;;;7753615;28;20219;-89
2023/12/27 00:05:47;;;;;;;3.00;1.87;;;6.10;99.90;;;;;;7748254;28;20580;-90
2023/12/27 00:09:32;;;;;;;4.13;1.43;;;6.20;99.90;;;;;;7749159;28;20215;-89
2023/12/27 00:13:18;;;;;;;6.10;1.30;;;6.10;99.90;;;;;;7750211;28;20192;-90
2023/12/27 00:17:04;;;;;;;2.90;1.40;;;6.10;99.90;;;;;;7747712;28;20548;-90
2023/12/27 00:20:57;;;;;;;3.83;1.40;;;6.10;99.90;;;;;;7748469;28;20673;-90
2023/12/27 00:24:42;;;;;;;5.03;1.70;;;6.10;99.90;;;;;;7749332;28;20204;-90
2023/12/27 00:28:28;;;;;;;3.90;1.40;;;6.10;99.90;;;;;;7748703;28;20254;-90
2023/12/27 00:32:15;;;;;;;4.37;1.50;;;6.10;99.90;;;;;;7750427;28;20198;-89
2023/12/27 00:36:00;;;;;;;4.67;1.20;;;6.10;99.90;;;;;;7779206;28;20278;-90
2023/12/27 00:39:47;;;;;;;5.53;1.80;;;6.10;99.90;;;;;;7754104;28;20246;-90
2023/12/27 00:43:33;;;;;;;4.43;1.17;;;6.10;99.90;;;;;;7747997;28;20203;-90
2023/12/27 00:47:19;;;;;;;3.30;1.20;;;6.10;99.90;;;;;;7747530;28;20204;-89
2023/12/27 00:51:05;;;;;;;4.13;1.33;;;6.20;99.90;;;;;;7756519;28;20189;-90
2023/12/27 00:54:52;;;;;;;4.23;1.27;;;6.10;99.90;;;;;;7775681;28;20223;-89
2023/12/27 00:58:38;;;;;;;6.70;1.40;;;6.10;99.90;;;;;;7778158;28;20562;-90
2023/12/27 01:02:24;;;;;;;6.23;1.30;;;6.10;99.90;;;;;;7776352;28;20198;-89
2023/12/27 01:06:10;;;;;;;3.37;1.10;;;6.10;99.90;;;;;;7754513;28;20227;-90
2023/12/27 01:09:56;;;;;;;6.83;1.50;;;6.00;99.90;;;;;;7765786;28;20210;-90
2023/12/27 01:13:41;;;;;;;5.67;2.40;;;6.00;99.90;;;;;;7777329;28;20207;-90
2023/12/27 01:17:27;;;;;;;5.30;1.50;;;6.00;99.90;;;;;;7749912;28;20216;-88
2023/12/27 01:21:13;;;;;;;3.37;1.20;;;6.10;99.90;;;;;;7746181;28;20196;-90
2023/12/27 01:24:59;;;;;;;2.77;1.00;;;6.10;99.90;;;;;;7760445;28;20215;-89
2023/12/27 01:28:45;;;;;;;7.93;1.40;;;6.20;99.90;;;;;;7782522;28;20684;-90
2023/12/27 01:32:30;;;;;;;4.50;1.03;;;6.10;99.90;;;;;;7747233;28;20176;-89
2023/12/27 01:36:19;;;;;;;1.53;0.93;;;6.00;99.90;;;;;;7748452;28;20224;-90
2023/12/27 01:40:07;;;;;;;2.90;1.10;;;6.00;99.90;;;;;;7776867;28;20238;-89
2023/12/27 01:43:53;;;;;;;5.40;1.10;;;6.00;99.90;;;;;;7776383;28;20203;-90
2023/12/27 01:47:38;;;;;;;3.60;1.23;;;6.10;99.90;;;;;;7767345;28;20199;-89
2023/12/27 01:51:25;;;;;;;3.90;1.07;;;6.10;99.90;;;;;;7777695;28;20563;-90
2023/12/27 01:55:12;;;;;;;4.67;1.00;;;6.10;99.90;;;;;;7788245;28;20673;-90
2023/12/27 01:58:59;;;;;;;4.07;1.10;;;6.20;99.90;;;;;;7752288;28;20236;-89
2023/12/27 02:02:45;;;;;;;3.83;1.00;;;6.10;99.90;;;;;;7777594;28;20176;-89
2023/12/27 02:06:31;;;;;;;3.37;0.93;;;6.10;99.90;;;;;;7773597;28;20253;-90
2023/12/27 02:10:17;;;;;;;5.50;1.17;;;6.20;99.90;;;;;;7756281;28;20215;-90
2023/12/27 02:14:06;;;;;;;6.17;1.20;;;6.10;99.90;;;;;;7760067;28;20253;-90
2023/12/27 02:17:52;;;;;;;4.00;1.43;;;6.10;99.90;;;;;;7745750;28;20199;-90
2023/12/27 02:21:38;;;;;;;6.40;1.10;;;6.10;99.90;;;;;;7771046;28;20187;-90
2023/12/27 02:25:24;;;;;;;3.17;0.93;;;6.00;99.90;;;;;;7766914;28;20204;-90
2023/12/27 02:29:09;;;;;;;2.83;0.83;;;5.90;99.90;;;;;;7752777;28;20615;-90
2023/12/27 02:32:55;;;;;;;4.63;0.80;;;5.90;99.90;;;;;;7763511;28;20270;-90
2023/12/27 02:36:42;;;;;;;7.37;1.20;;;5.80;99.90;;;;;;7749458;28;20175;-90
2023/12/27 02:40:27;;;;;;;3.17;0.90;;;5.80;99.90;;;;;;7755322;28;20175;-89
2023/12/27 02:44:13;;;;;;;2.57;0.67;;;5.70;99.90;;;;;;7763322;28;20204;-89
2023/12/27 02:47:59;;;;;;;3.07;0.90;;;5.70;99.90;;;;;;7747903;28;20195;-89
2023/12/27 02:51:44;;;;;;;2.37;0.87;;;5.80;99.90;;;;;;7760879;28;20654;-89
2023/12/27 02:55:30;;;;;;;3.30;1.00;;;5.80;99.90;;;;;;7766840;28;20665;-90
2023/12/27 02:59:16;;;;;;;2.00;0.77;;;5.70;99.90;;;;;;7759303;28;20187;-90
2023/12/27 03:03:02;;;;;;;3.97;1.00;;;5.70;99.90;;;;;;7754745;28;20249;-88
2023/12/27 03:06:48;;;;;;;4.60;0.93;;;5.70;99.90;;;;;;7768947;28;20191;-90
2023/12/27 03:10:33;;;;;;;3.63;0.93;;;5.60;99.90;;;;;;7745066;28;20176;-89
2023/12/27 03:14:19;;;;;;;3.97;0.80;;;5.60;99.90;;;;;;7751023;28;20200;-90
2023/12/27 03:18:05;;;;;;;7.60;0.80;;;5.60;99.90;;;;;;7744629;28;20635;-89
2023/12/27 03:21:50;;;;;;;3.10;0.70;;;5.50;99.90;;;;;;7744769;28;20184;-89
2023/12/27 03:25:36;;;;;;;4.47;0.63;;;5.40;99.90;;;;;;7768770;28;20235;-89
2023/12/27 03:29:22;;;;;;;4.47;0.80;;;5.40;99.90;;;;;;7779284;28;20192;-90
2023/12/27 03:33:07;;;;;;;3.50;0.83;;;5.30;99.90;;;;;;7771682;28;20184;-89
2023/12/27 03:36:53;;;;;;;5.77;0.73;;;5.30;99.90;;;;;;7749451;28;20612;-89
2023/12/27 03:40:39;;;;;;;5.83;1.13;;;5.40;99.90;;;;;;7750041;28;20187;-90
2023/12/27 03:44:24;;;;;;;2.93;0.70;;;5.40;99.90;;;;;;7757932;28;20230;-90
2023/12/27 03:48:10;;;;;;;1.77;0.60;;;5.40;99.90;;;;;;7779954;28;20210;-90
2023/12/27 03:51:56;;;;;;;6.43;0.70;;;5.50;99.90;;;;;;7778308;28;20266;-89
2023/12/27 03:55:44;;;;;;;2.37;0.80;;;5.40;99.90;;;;;;7749195;28;20196;-89
2023/12/27 03:59:30;;;;;;;3.00;0.80;;;5.40;99.90;;;;;;7750096;28;20191;-90
2023/12/27 04:03:15;;;;;;;2.97;0.60;;;5.30;99.90;;;;;;7750526;28;20299;-88
2023/12/27 04:07:01;;;;;;;5.00;0.97;;;5.20;99.90;;;;;;7761801;28;20196;-90
2023/12/27 04:10:47;;;;;;;3.93;0.73;;;5.20;99.90;;;;;;7774554;28;20661;-90
2023/12/27 04:14:32;;;;;;;2.30;0.70;;;5.10;99.90;;;;;;7758384;28;20287;-89
2023/12/27 04:18:18;;;;;;;8.00;1.03;;;4.90;99.90;;;;;;7750856;28;20266;-89
2023/12/27 04:22:05;;;;;;;4.90;0.90;;;4.80;99.90;;;;;;7748966;28;20184;-89
2023/12/27 04:25:53;;;;;;;0.93;0.67;;;4.70;99.90;;;;;;7747512;28;20207;-89
2023/12/27 04:29:39;;;;;;;5.47;0.80;;;4.60;99.90;;;;;;7757154;28;20214;-89
2023/12/27 04:33:32;;;;;;;4.10;0.97;;;4.60;99.90;;;;;;7762546;28;20685;-88
2023/12/27 04:37:17;;;;;;;3.60;0.70;;;4.60;99.90;;;;;;7757800;28;20187;-89
2023/12/27 04:41:09;;;;;;;2.73;1.20;;;4.60;99.90;;;;;;7748489;28;20276;-90
2023/12/27 04:44:55;;;;;;;4.90;0.80;;;4.50;99.90;;;;;;7747960;28;20207;-89
2023/12/27 04:48:40;;;;;;;4.67;0.70;;;4.40;99.90;;;;;;7753281;28;20629;-89
2023/12/27 04:52:30;;;;;;;5.93;1.10;;;4.30;99.90;;;;;;7748205;28;20172;-89
2023/12/27 04:56:17;;;;;;;4.40;0.87;;;4.20;99.90;;;;;;7756435;28;20202;-89
2023/12/27 05:00:04;;;;;;;3.73;0.77;;;4.30;99.90;;;;;;7766932;28;20668;-89
2023/12/27 05:03:50;;;;;;;3.30;0.93;;;4.30;99.90;;;;;;7777866;28;20695;-89
2023/12/27 05:07:36;;;;;;;2.47;0.63;;;4.30;99.90;;;;;;7762697;28;20192;-89
2023/12/27 05:11:21;;;;;;;5.23;0.70;;;4.20;99.90;;;;;;7774421;28;20183;-89
2023/12/27 05:15:10;;;;;;;3.33;0.90;;;4.10;99.90;;;;;;7772672;28;20204;-89
2023/12/27 05:18:56;;;;;;;7.03;1.00;;;4.20;99.90;;;;;;7750415;28;20199;-89
2023/12/27 05:22:41;;;;;;;5.47;1.10;;;4.10;99.90;;;;;;7757691;28;20180;-89
2023/12/27 05:26:27;;;;;;;4.60;0.90;;;4.10;99.90;;;;;;7746542;28;20199;-89
2023/12/27 05:30:13;;;;;;;7.17;0.80;;;4.10;99.90;;;;;;7747962;28;20283;-89
2023/12/27 05:33:58;;;;;;;4.00;0.87;;;4.10;99.90;;;;;;7751408;28;20226;-89
2023/12/27 05:37:44;;;;;;;5.50;0.97;;;4.10;99.90;;;;;;7746463;28;20234;-90
2023/12/27 05:41:30;;;;;;;5.00;1.30;;;4.20;99.90;;;;;;7749757;28;20310;-90
2023/12/27 05:45:16;;;;;;;5.43;1.57;;;4.20;99.90;;;;;;7769023;28;20204;-89
2023/12/27 05:49:02;;;;;;;7.37;2.17;;;4.20;99.90;;;;;;7747406;28;20274;-90
2023/12/27 05:52:47;;;;;;;6.23;1.87;;;4.20;99.90;;;;;;7755475;28;20191;-89
2023/12/27 05:56:33;;;;;;;4.17;1.33;;;4.20;99.90;;;;;;7757521;28;20199;-89
2023/12/27 06:00:19;;;;;;;4.53;1.50;;;4.20;99.90;;;;;;7759867;28;20242;-89
2023/12/27 06:04:05;;;;;;;6.60;1.43;;;4.20;99.90;;;;;;7745669;28;20414;-89
2023/12/27 06:08:05;;;;;;;5.10;1.40;;;4.30;99.90;;;;;;7764120;28;20334;-89
2023/12/27 06:11:51;;;;;;;2.63;0.90;;;4.20;99.90;;;;;;7776514;28;20262;-89
2023/12/27 06:15:45;;;;;;;2.60;1.03;;;4.20;99.90;;;;;;7760971;28;20210;-89
2023/12/27 06:19:31;;;;;;;2.43;1.00;;;4.30;99.90;;;;;;7776221;28;20191;-90
2023/12/27 06:23:17;;;;;;;5.83;1.30;;;4.30;99.90;;;;;;7775687;28;20277;-89
2023/12/27 06:27:06;;;;;;;2.43;1.00;;;4.30;99.90;;;;;;7759261;28;20180;-90
2023/12/27 06:30:52;;;;;;;4.47;0.73;;;4.20;99.90;;;;;;7750900;28;20190;-89
2023/12/27 06:34:37;;;;;;;4.47;1.03;;;4.20;99.90;;;;;;7744578;28;20211;-90
2023/12/27 06:38:33;;;;;;;4.60;1.20;;;4.30;99.90;;;;;;7753982;28;20184;-90
2023/12/27 06:42:19;;;;;;;3.67;1.17;;;4.30;99.90;;;;;;7753633;28;20587;-85
2023/12/27 06:46:04;;;;;;;1.73;1.10;;;4.20;99.90;;;;;;7770556;28;20222;-86
2023/12/27 06:49:50;;;;;;;3.60;1.17;;;4.20;99.90;;;;;;7757443;28;20222;-87
2023/12/27 06:53:36;;;;;;;3.10;1.30;;;4.20;99.90;;;;;;7750696;28;20626;-86
2023/12/27 06:57:22;;;;;;;2.67;1.30;;;4.20;99.90;;;;;;7749612;28;20293;-85
2023/12/27 07:01:09;;;;;;;3.10;1.30;;;4.30;99.90;;;;;;7749520;28;20270;-85
2023/12/27 07:04:55;;;;;;;6.10;1.60;;;4.30;99.90;;;;;;7749873;28;20210;-85
2023/12/27 07:08:40;;;;;;;4.97;1.60;;;4.20;99.90;;;;;;7752902;28;20231;-88
2023/12/27 07:12:27;;;;;;;3.33;1.53;;;4.20;99.90;;;;;;7751344;28;20253;-89
2023/12/27 07:16:14;;;;;;;2.40;1.33;;;4.20;99.90;;;;;;7750861;28;20208;-88
2023/12/27 07:20:00;;;;;;;6.93;1.70;;;4.20;99.90;;;;;;7750946;28;20192;-88
2023/12/27 07:23:46;;;;;;;6.67;1.47;;;4.20;99.90;;;;;;7750249;28;20602;-88
2023/12/27 07:27:31;;;;;;;5.17;1.50;;;4.10;99.90;;;;;;7755880;28;20221;-89
2023/12/27 07:31:18;;;;;;;6.17;1.87;;;4.10;99.90;;;;;;7757133;28;20222;-89
2023/12/27 07:35:04;;;;;;;24.70;12.47;;;4.10;99.90;;;;;;7750463;28;20209;-90
2023/12/27 07:38:50;;;;;;;17.20;8.17;;;4.10;99.90;;;;;;7751221;28;20180;-89
2023/12/27 07:42:36;;;;;;;9.63;5.40;;;4.00;99.90;;;;;;7767854;28;20215;-89
2023/12/27 07:46:21;;;;;;;14.97;7.93;;;4.00;99.90;;;;;;7751462;28;20214;-89
2023/12/27 07:50:07;;;;;;;19.23;10.33;;;4.00;99.90;;;;;;7749663;28;20744;-89
2023/12/27 07:53:53;;;;;;;15.97;8.70;;;4.00;99.90;;;;;;7748071;28;20199;-89
2023/12/27 07:57:40;;;;;;;17.03;10.73;;;3.90;99.90;;;;;;7747935;28;20661;-89
2023/12/27 08:01:30;;;;;;;15.30;8.43;;;3.90;99.90;;;;;;7763543;28;20194;-89
2023/12/27 08:05:16;;;;;;;18.57;7.67;;;4.00;99.90;;;;;;7779246;28;20593;-88
2023/12/27 08:09:01;;;;;;;14.67;6.60;;;4.00;99.90;;;;;;7753377;28;20228;-85
2023/12/27 08:12:47;;;;;;;10.90;6.57;;;4.00;99.90;;;;;;7736712;28;20569;-89
2023/12/27 08:16:33;;;;;;;8.77;4.30;;;3.90;99.90;;;;;;7736459;28;20209;-89
2023/12/27 08:20:18;;;;;;;9.33;4.00;;;3.80;99.90;;;;;;7747355;28;20207;-89
2023/12/27 08:24:04;;;;;;;10.50;5.03;;;3.90;99.90;;;;;;7749054;28;20299;-89
2023/12/27 08:27:50;;;;;;;13.50;5.43;;;3.90;99.90;;;;;;7748518;28;20210;-89
2023/12/27 08:31:36;;;;;;;14.73;7.03;;;3.90;99.90;;;;;;7750397;28;20176;-89
2023/12/27 08:35:21;;;;;;;13.93;5.80;;;3.90;99.90;;;;;;7751584;28;20204;-89
2023/12/27 08:39:08;;;;;;;11.37;6.23;;;4.00;99.90;;;;;;7751634;28;20183;-89
2023/12/27 08:42:54;;;;;;;14.13;5.63;;;4.00;99.90;;;;;;7749145;28;20187;-89
2023/12/27 08:46:40;;;;;;;11.67;5.13;;;4.00;99.90;;;;;;7756834;28;20757;-89
2023/12/27 08:50:25;;;;;;;12.83;5.00;;;4.00;99.90;;;;;;7779351;28;20576;-89
2023/12/27 08:54:11;;;;;;;12.87;4.67;;;4.00;99.90;;;;;;7761262;28;20286;-89
2023/12/27 08:57:57;;;;;;;6.63;3.40;;;4.00;99.90;;;;;;7747722;28;20184;-90
2023/12/27 09:01:42;;;;;;;16.80;3.47;;;3.90;99.90;;;;;;7750103;28;20753;-90
2023/12/27 09:05:28;;;;;;;5.37;2.80;;;3.90;99.90;;;;;;7748548;28;20219;-89
2023/12/27 09:09:14;;;;;;;6.67;2.80;;;4.00;99.90;;;;;;7748192;28;20204;-89
2023/12/27 09:13:00;;;;;;;5.37;1.67;;;4.00;99.90;;;;;;7748613;28;20175;-89
2023/12/27 09:16:46;;;;;;;5.83;1.80;;;4.00;99.90;;;;;;7747830;28;20184;-89
2023/12/27 09:20:47;;;;;;;6.63;2.07;;;3.90;99.90;;;;;;7748578;28;20196;-89
2023/12/27 09:24:33;;;;;;;5.53;2.30;;;4.00;99.90;;;;;;7758587;28;20227;-90
2023/12/27 09:28:19;;;;;;;8.50;2.67;;;4.00;99.90;;;;;;7747416;28;20229;-89
2023/12/27 09:32:05;;;;;;;9.47;4.00;;;4.00;99.90;;;;;;7747216;28;20195;-89
2023/12/27 09:35:50;;;;;;;8.70;3.07;;;4.10;99.90;;;;;;7748217;28;20198;-89
2023/12/27 09:39:37;;;;;;;7.50;1.97;;;4.10;99.90;;;;;;7750109;28;20188;-90
2023/12/27 09:43:24;;;;;;;4.03;1.80;;;4.10;99.90;;;;;;7746484;28;20227;-90
2023/12/27 09:47:11;;;;;;;8.40;2.17;;;4.20;99.90;;;;;;7755741;28;20188;-90
2023/12/27 09:50:58;;;;;;;7.50;3.20;;;4.20;99.90;;;;;;7747568;28;20187;-90
2023/12/27 09:55:11;;;;;;;7.27;2.73;;;4.20;99.90;;;;;;7747054;28;20286;-90
2023/12/27 09:59:00;;;;;;;8.23;2.90;;;4.20;99.90;;;;;;7725575;28;20601;-90
2023/12/27 10:02:55;;;;;;;8.93;2.30;;;4.30;99.90;;;;;;7738918;28;20238;-91
2023/12/27 10:06:44;;;;;;;8.13;2.60;;;4.40;99.90;;;;;;7746453;28;20199;-90
2023/12/27 10:10:32;;;;;;;6.10;2.23;;;4.40;99.90;;;;;;7746485;28;20238;-90
2023/12/27 10:14:18;;;;;;;7.90;2.00;;;4.40;99.90;;;;;;7746156;28;20207;-90
2023/12/27 10:18:04;;;;;;;6.77;2.17;;;4.50;99.90;;;;;;7746250;28;20662;-90
2023/12/27 10:21:52;;;;;;;4.53;1.23;;;4.50;99.90;;;;;;7747249;28;20175;-88
2023/12/27 10:25:40;;;;;;;4.30;1.50;;;4.50;99.90;;;;;;7730173;28;20562;-89
2023/12/27 10:29:26;;;;;;;8.67;1.40;;;4.60;99.90;;;;;;7762842;28;20204;-90
2023/12/27 10:33:11;;;;;;;4.93;1.30;;;4.60;99.90;;;;;;7744890;28;20183;-89
2023/12/27 10:36:58;;;;;;;3.77;1.40;;;4.60;99.90;;;;;;7744586;28;20176;-85
2023/12/27 10:40:44;;;;;;;4.90;1.57;;;4.60;99.90;;;;;;7714034;28;20246;-90
2023/12/27 10:44:30;;;;;;;4.40;1.83;;;4.60;99.90;;;;;;7743731;28;20196;-89
2023/12/27 10:48:17;;;;;;;6.83;1.90;;;4.60;99.90;;;;;;7754513;28;20214;-90
2023/12/27 10:52:04;;;;;;;2.97;1.50;;;4.60;99.90;;;;;;7748194;28;20184;-90
2023/12/27 10:55:51;;;;;;;7.23;1.33;;;4.60;99.90;;;;;;7742955;28;20199;-90
2023/12/27 10:59:36;;;;;;;8.20;1.70;;;4.70;99.90;;;;;;7743330;28;20176;-90
2023/12/27 11:03:23;;;;;;;4.23;1.30;;;4.70;99.90;;;;;;7742905;28;20204;-90
2023/12/27 11:07:10;;;;;;;7.00;1.27;;;4.70;99.90;;;;;;7745292;28;20275;-90
2023/12/27 11:10:57;;;;;;;6.73;1.60;;;4.70;99.90;;;;;;7745147;28;20580;-89
2023/12/27 11:14:45;;;;;;;6.00;1.70;;;4.70;99.90;;;;;;7745269;28;20196;-89
2023/12/27 11:18:31;;;;;;;3.60;1.97;;;4.80;99.90;;;;;;7745800;28;20198;-90
2023/12/27 11:22:17;;;;;;;106.70;8.27;;;4.80;99.90;;;;;;7744632;28;20242;-89
2023/12/27 11:26:05;;;;;;;1280.77;90.77;;;4.90;99.90;;;;;;7744263;28;20200;-89
2023/12/27 11:29:51;;;;;;;806.60;49.80;;;5.00;99.90;;;;;;7743928;28;20311;-89
2023/12/27 11:33:37;;;;;;;390.63;25.53;;;5.20;99.90;;;;;;7743235;28;20475;-85
2023/12/27 11:37:23;;;;;;;154.80;9.70;;;5.30;99.90;;;;;;7742832;28;20187;-85
2023/12/27 11:41:10;;;;;;;137.33;7.83;;;5.40;99.90;;;;;;7746069;28;20781;-86
2023/12/27 11:44:57;;;;;;;67.87;5.30;;;5.40;99.90;;;;;;7748886;28;20212;-88
2023/12/27 11:48:43;;;;;;;381.73;21.83;;;5.40;99.90;;;;;;7742110;28;20212;-86
2023/12/27 11:52:29;;;;;;;68.40;6.80;;;5.50;99.90;;;;;;7759242;28;20201;-85
2023/12/27 11:56:15;;;;;;;14.53;2.00;;;5.60;99.90;;;;;;7750951;28;20242;-87
2023/12/27 12:00:01;;;;;;;12.93;2.30;;;5.60;99.90;;;;;;7751943;28;20190;-85
2023/12/27 12:03:55;;;;;;;6.93;1.80;;;5.60;99.90;;;;;;7751245;28;20666;-85
2023/12/27 12:08:05;;;;;;;4.83;1.90;;;5.60;99.90;;;;;;7747616;28;20204;-85
2023/12/27 12:11:50;;;;;;;3.07;1.63;;;5.60;99.90;;;;;;7749946;28;20180;-86
2023/12/27 12:15:36;;;;;;;7.23;1.70;;;5.50;99.90;;;;;;7747311;28;20200;-84
2023/12/27 12:19:22;;;;;;;4.30;1.50;;;5.60;99.90;;;;;;7750599;28;20496;-85
2023/12/27 12:23:09;;;;;;;4.97;1.50;;;5.60;99.90;;;;;;7748281;28;20184;-92
2023/12/27 12:26:57;;;;;;;7.90;1.93;;;5.60;99.90;;;;;;7747587;28;20194;-87
2023/12/27 12:30:49;;;;;;;9.10;1.47;;;5.60;99.90;;;;;;7747291;28;20204;-87
2023/12/27 12:34:35;;;;;;;7.03;1.90;;;5.60;99.90;;;;;;7761795;28;20199;-85
2023/12/27 12:38:21;;;;;;;10.10;1.63;;;5.60;99.90;;;;;;7777426;28;20646;-84
2023/12/27 12:42:07;;;;;;;6.73;1.70;;;5.70;99.90;;;;;;7755794;28;20180;-85
2023/12/27 12:45:57;;;;;;;10.67;1.63;;;5.70;99.90;;;;;;7747934;28;20471;-84
2023/12/27 12:49:43;;;;;;;6.63;1.70;;;5.70;99.90;;;;;;7771496;28;20207;-85
2023/12/27 12:53:28;;;;;;;7.00;2.00;;;5.70;99.90;;;;;;7743994;28;20208;-85
2023/12/27 12:57:15;;;;;;;7.23;1.60;;;5.70;99.90;;;;;;7744448;28;20179;-85
2023/12/27 13:01:01;;;;;;;581.47;33.00;;;5.70;99.90;;;;;;7745457;28;20176;-85
2023/12/27 13:04:51;;;;;;;292.17;16.43;;;5.80;99.90;;;;;;7746018;28;20203;-84
2023/12/27 13:08:38;;;;;;;358.90;25.50;;;6.00;99.90;;;;;;7743716;28;20279;-85
2023/12/27 13:12:24;;;;;;;190.43;11.40;;;6.10;99.90;;;;;;7745208;28;20176;-85
2023/12/27 13:16:10;;;;;;;29.90;4.97;;;6.10;99.90;;;;;;7730133;28;20235;-85
2023/12/27 13:19:57;;;;;;;8.63;2.20;;;5.90;99.90;;;;;;7738863;28;20270;-85
2023/12/27 13:23:43;;;;;;;8.80;2.70;;;5.80;99.90;;;;;;7745131;28;20673;-85
2023/12/27 13:27:28;;;;;;;6.20;1.93;;;5.80;99.90;;;;;;7747152;28;20579;-86
2023/12/27 13:31:14;;;;;;;8.37;2.03;;;5.70;99.90;;;;;;7744835;28;20180;-85
2023/12/27 13:35:00;;;;;;;6.00;2.53;;;5.70;99.90;;;;;;7748767;28;20278;-84
2023/12/27 13:38:45;;;;;;;7.47;2.37;;;5.60;99.90;;;;;;7744722;28;20180;-85
2023/12/27 13:42:31;;;;;;;8.17;2.90;;;5.60;99.90;;;;;;7762790;28;20645;-85
2023/12/27 13:46:17;;;;;;;7.53;2.73;;;5.60;99.90;;;;;;7752498;28;20234;-83
2023/12/27 13:50:03;;;;;;;9.20;3.10;;;5.60;99.90;;;;;;7758058;28;20196;-86
2023/12/27 13:53:49;;;;;;;7.03;2.50;;;5.70;99.90;;;;;;7740332;28;20196;-88
2023/12/27 13:57:45;;;;;;;7.20;2.67;;;5.70;99.90;;;;;;7774064;28;20184;-89
2023/12/27 14:01:37;;;;;;;7.37;3.03;;;5.70;99.90;;;;;;7756576;28;20199;-89
2023/12/27 14:05:22;;;;;;;8.77;2.80;;;5.70;99.90;;;;;;7748200;28;20729;-89
2023/12/27 14:09:08;;;;;;;7.43;2.60;;;5.70;99.90;;;;;;7745838;28;20686;-89
2023/12/27 14:12:55;;;;;;;7.40;2.80;;;5.70;99.90;;;;;;7770509;28;20171;-95
2023/12/27 14:16:42;;;;;;;6.17;2.63;;;5.70;99.90;;;;;;7788590;28;20241;-90
2023/12/27 14:20:29;;;;;;;5.43;2.70;;;5.70;99.90;;;;;;7750260;28;20192;-84
2023/12/27 14:24:15;;;;;;;10.53;2.37;;;5.70;99.90;;;;;;7747730;28;20222;-86
2023/12/27 14:28:06;;;;;;;4.60;2.40;;;5.70;99.90;;;;;;7761041;28;20204;-90
2023/12/27 14:31:51;;;;;;;13.50;2.93;;;5.70;99.90;;;;;;7749800;28;20208;-85
2023/12/27 14:35:37;;;;;;;9.43;2.87;;;5.70;99.90;;;;;;7748671;28;20431;-89
2023/12/27 14:39:23;;;;;;;9.03;2.50;;;5.70;99.90;;;;;;7757008;28;20195;-88
2023/12/27 14:43:12;;;;;;;5.57;2.37;;;5.70;99.90;;;;;;7749119;28;20180;-89
2023/12/27 14:46:58;;;;;;;7.10;2.50;;;5.70;99.90;;;;;;7765207;28;20176;-89
2023/12/27 14:50:43;;;;;;;6.13;2.60;;;5.70;99.90;;;;;;7745858;28;20210;-89
2023/12/27 14:54:29;;;;;;;8.97;2.50;;;5.70;99.90;;;;;;7745712;28;20206;-89
2023/12/27 14:58:15;;;;;;;6.57;2.80;;;5.70;99.90;;;;;;7745266;28;20279;-90
2023/12/27 15:02:02;;;;;;;12.80;3.70;;;5.60;99.90;;;;;;7744259;28;20421;-88
2023/12/27 15:05:47;;;;;;;22.23;3.53;;;5.70;99.90;;;;;;7745807;28;20206;-88
2023/12/27 15:09:33;;;;;;;9.73;3.00;;;5.70;99.90;;;;;;7745846;28;20204;-90
2023/12/27 15:13:19;;;;;;;8.83;3.10;;;5.70;99.90;;;;;;7748695;28;20283;-90
2023/12/27 15:17:06;;;;;;;8.73;3.27;;;5.60;99.90;;;;;;7746848;28;20180;-91
2023/12/27 15:21:18;;;;;;;8.63;3.77;;;5.60;99.90;;;;;;7749549;28;20203;-90
2023/12/27 15:25:05;;;;;;;13.03;3.90;;;5.50;99.90;;;;;;7752364;28;20207;-89
2023/12/27 15:28:51;;;;;;;8.83;3.50;;;5.50;99.90;;;;;;7751515;28;20287;-90
2023/12/27 15:32:37;;;;;;;11.07;5.30;;;5.50;99.90;;;;;;7751580;28;20172;-90
2023/12/27 15:36:24;;;;;;;11.13;4.03;;;5.50;99.90;;;;;;7750836;28;20207;-90
2023/12/27 15:40:10;;;;;;;10.40;3.77;;;5.50;99.90;;;;;;7750796;28;20180;-91
2023/12/27 15:44:03;;;;;;;7.83;4.03;;;5.40;99.90;;;;;;7751720;28;20269;-90
2023/12/27 15:47:48;;;;;;;12.13;4.27;;;5.40;99.90;;;;;;7750996;28;20287;-89
2023/12/27 15:51:42;;;;;;;9.37;3.90;;;5.40;99.90;;;;;;7750887;28;20187;-90
2023/12/27 15:55:27;;;;;;;19.02;5.53;;;5.40;99.90;;;;;;7749871;28;20425;-90
2023/12/27 15:59:19;;;;;;;12.23;5.10;;;5.40;99.90;;;;;;7750668;28;20415;-90
2023/12/27 16:03:05;;;;;;;10.05;4.20;;;5.40;99.90;;;;;;7763231;28;20510;-89
2023/12/27 16:06:54;;;;;;;10.67;4.13;;;5.40;99.90;;;;;;7754786;28;20693;-90
2023/12/27 16:10:39;;;;;;;8.87;4.10;;;5.40;99.90;;;;;;7748496;28;20504;-90
2023/12/27 16:14:25;;;;;;;16.53;4.00;;;5.30;99.90;;;;;;7748013;28;20203;-90
2023/12/27 16:18:11;;;;;;;10.83;4.07;;;5.30;99.90;;;;;;7755716;28;20204;-90
2023/12/27 16:21:57;;;;;;;9.87;3.90;;;5.30;99.90;;;;;;7752267;28;20195;-94
2023/12/27 16:25:53;;;;;;;13.03;4.10;;;5.30;99.90;;;;;;7748034;28;20196;-91
2023/12/27 16:29:51;;;;;;;7.27;3.90;;;5.30;99.90;;;;;;7748880;28;20214;-89
2023/12/27 16:33:37;;;;;;;15.37;4.50;;;5.30;99.90;;;;;;7755715;28;20195;-90
2023/12/27 16:37:23;;;;;;;11.27;4.40;;;5.30;99.90;;;;;;7754354;28;20190;-91
2023/12/27 16:41:12;;;;;;;11.50;4.20;;;5.20;99.90;;;;;;7751582;28;20677;-90
2023/12/27 16:44:58;;;;;;;10.13;4.13;;;5.20;99.90;;;;;;7750011;28;20767;-90
2023/12/27 16:48:46;;;;;;;9.00;4.30;;;5.20;99.90;;;;;;7759887;28;20214;-90
2023/12/27 16:52:48;;;;;;;10.43;4.17;;;5.20;99.90;;;;;;7756291;28;20267;-90
2023/12/27 16:57:08;;;;;;;10.13;3.70;;;5.20;99.90;;;;;;7748762;28;20287;-89
2023/12/27 17:00:56;;;;;;;11.60;4.10;;;5.20;99.90;;;;;;7767208;28;20179;-89
2023/12/27 17:04:45;;;;;;;6.13;3.60;;;5.20;99.90;;;;;;7763712;28;20250;-90
2023/12/27 17:08:30;;;;;;;8.77;4.00;;;5.20;99.90;;;;;;7758147;28;20748;-90
2023/12/27 17:12:17;;;;;;;8.87;3.70;;;5.20;99.90;;;;;;7757428;28;20595;-89
2023/12/27 17:16:05;;;;;;;11.43;3.67;;;5.20;99.90;;;;;;7751207;28;20208;-90
2023/12/27 17:19:51;;;;;;;7.63;3.60;;;5.10;99.90;;;;;;7750131;28;20654;-89
2023/12/27 17:23:36;;;;;;;9.50;4.10;;;5.20;99.90;;;;;;7747319;28;20625;-90
2023/12/27 17:27:26;;;;;;;8.90;3.80;;;5.10;99.90;;;;;;7749281;28;20188;-89
2023/12/27 17:31:18;;;;;;;9.93;4.27;;;5.10;99.90;;;;;;7745256;28;20196;-89
2023/12/27 17:35:16;;;;;;;12.27;4.13;;;5.10;99.90;;;;;;7747619;28;20406;-90
2023/12/27 17:39:02;;;;;;;8.37;3.30;;;5.10;99.90;;;;;;7757698;28;20206;-90
2023/12/27 17:43:01;;;;;;;10.40;4.10;;;5.10;99.90;;;;;;7759571;28;20226;-90
2023/12/27 17:46:46;;;;;;;14.27;4.00;;;5.10;99.90;;;;;;7752757;28;20658;-90
2023/12/27 17:50:43;;;;;;;10.40;3.80;;;5.10;99.90;;;;;;7749493;28;20601;-90
2023/12/27 17:54:29;;;;;;;6.53;3.63;;;5.10;99.90;;;;;;7764709;28;20241;-90
2023/12/27 17:58:15;;;;;;;8.33;4.00;;;5.10;99.90;;;;;;7749304;28;20187;-90
2023/12/27 18:02:04;;;;;;;11.47;4.07;;;5.10;99.90;;;;;;7756952;28;20662;-89
2023/12/27 18:05:51;;;;;;;10.87;3.97;;;5.20;99.90;;;;;;7742825;28;20210;-89
2023/12/27 18:09:42;;;;;;;9.67;3.73;;;5.20;99.90;;;;;;7744312;28;20301;-90
2023/12/27 18:13:27;;;;;;;10.53;3.40;;;5.20;99.90;;;;;;7745087;28;20195;-90
2023/12/27 18:17:13;;;;;;;10.77;3.60;;;5.20;99.90;;;;;;7743746;28;20180;-90
2023/12/27 18:20:59;;;;;;;12.30;4.40;;;5.20;99.90;;;;;;7743714;28;20184;-90
2023/12/27 18:24:44;;;;;;;10.83;4.30;;;5.20;99.90;;;;;;7747158;28;20254;-90
2023/12/27 18:28:31;;;;;;;11.67;3.90;;;5.30;99.90;;;;;;7746650;28;20214;-90
2023/12/27 18:32:17;;;;;;;7.63;3.73;;;5.20;99.90;;;;;;7747329;28;20597;-90
2023/12/27 18:36:03;;;;;;;8.23;3.63;;;5.20;99.90;;;;;;7744557;28;20266;-89
2023/12/27 18:39:58;;;;;;;8.47;4.03;;;5.20;99.90;;;;;;7743236;28;20179;-88
2023/12/27 18:43:44;;;;;;;10.50;4.27;;;5.20;99.90;;;;;;7745014;28;20207;-89
2023/12/27 18:47:30;;;;;;;11.97;3.50;;;5.20;99.90;;;;;;7745184;28;20250;-90
2023/12/27 18:51:16;;;;;;;8.67;3.37;;;5.20;99.90;;;;;;7745672;28;20179;-90
2023/12/27 18:55:11;;;;;;;7.67;3.57;;;5.20;99.90;;;;;;7751482;28;20261;-90
2023/12/27 18:59:02;;;;;;;8.90;3.77;;;5.20;99.90;;;;;;7756778;28;20190;-90
2023/12/27 19:02:48;;;;;;;9.37;3.80;;;5.30;99.90;;;;;;7754549;28;20192;-89
2023/12/27 19:06:34;;;;;;;8.13;3.50;;;5.30;99.90;;;;;;7767369;28;20203;-90
2023/12/27 19:10:20;;;;;;;10.87;4.10;;;5.30;99.90;;;;;;7761705;28;20203;-90
2023/12/27 19:14:05;;;;;;;7.87;3.33;;;5.30;99.90;;;;;;7750886;28;20199;-91
2023/12/27 19:17:51;;;;;;;8.70;3.33;;;5.30;99.90;;;;;;7751136;28;20191;-91
2023/12/27 19:21:54;;;;;;;9.10;3.80;;;5.30;99.90;;;;;;7763922;28;20263;-90
2023/12/27 19:25:40;;;;;;;8.80;3.67;;;5.30;99.90;;;;;;7720589;28;20343;-91
2023/12/27 19:29:26;;;;;;;8.20;3.80;;;5.30;99.90;;;;;;7720247;28;20207;-91
2023/12/27 19:33:12;;;;;;;9.48;3.60;;;5.30;99.90;;;;;;7749898;28;20954;-87
2023/12/27 19:37:05;;;;;;;9.60;3.77;;;5.30;99.90;;;;;;7750958;28;20203;-90
2023/12/27 19:40:55;;;;;;;9.70;3.97;;;5.30;99.90;;;;;;7770005;28;20194;-90
2023/12/27 19:44:46;;;;;;;7.07;3.33;;;5.30;99.90;;;;;;7767140;28;20203;-90
2023/12/27 19:48:35;;;;;;;9.53;3.47;;;5.30;99.90;;;;;;7752009;28;20192;-90
2023/12/27 19:52:21;;;;;;;9.07;3.70;;;5.30;99.90;;;;;;7752036;28;20211;-91